sensor_id;sensor_type;location;lat;lon;timestamp;P1;durP1;ratioP1;P2;durP2;ratioP2
23346;SDS011;36852;45.466;11.066;2023-05-07T00:01:23;14.55;;;12.88;;
23346;SDS011;36852;45.466;11.066;2023-05-07T00:03:51;16.37;;;13.18;;
23346;SDS011;36852;45.466;11.066;2023-05-07T00:06:19;16.73;;;12.63;;
23346;SDS011;36852;45.466;11.066;2023-05-07T00:08:48;14.75;;;12.20;;
23346;SDS011;36852;45.466;11.066;2023-05-07T00:11:16;16.35;;;13.50;;
23346;SDS011;36852;45.466;11.066;2023-05-07T00:13:44;16.15;;;13.10;;
23346;SDS011;36852;45.466;11.066;2023-05-07T00:16:12;14.75;;;13.22;;
23346;SDS011;36852;45.466;11.066;2023-05-07T00:18:40;16.52;;;12.85;;
23346;SDS011;36852;45.466;11.066;2023-05-07T00:21:09;15.83;;;12.80;;
23346;SDS011;36852;45.466;11.066;2023-05-07T00:23:37;15.32;;;13.10;;
23346;SDS011;36852;45.466;11.066;2023-05-07T00:26:05;13.38;;;11.97;;
23346;SDS011;36852;45.466;11.066;2023-05-07T00:28:33;16.37;;;12.37;;
23346;SDS011;36852;45.466;11.066;2023-05-07T00:31:01;14.85;;;12.65;;
23346;SDS011;36852;45.466;11.066;2023-05-07T00:33:29;13.78;;;12.37;;
23346;SDS011;36852;45.466;11.066;2023-05-07T00:35:57;14.35;;;12.85;;
23346;SDS011;36852;45.466;11.066;2023-05-07T00:38:24;17.98;;;13.38;;
23346;SDS011;36852;45.466;11.066;2023-05-07T00:40:52;26.02;;;14.18;;
23346;SDS011;36852;45.466;11.066;2023-05-07T00:46:08;14.93;;;13.25;;
23346;SDS011;36852;45.466;11.066;2023-05-07T00:48:39;17.07;;;14.28;;
23346;SDS011;36852;45.466;11.066;2023-05-07T00:51:09;18.35;;;14.03;;
23346;SDS011;36852;45.466;11.066;2023-05-07T00:53:38;15.43;;;13.22;;
23346;SDS011;36852;45.466;11.066;2023-05-07T00:56:06;15.65;;;14.05;;
23346;SDS011;36852;45.466;11.066;2023-05-07T00:58:34;15.13;;;13.48;;
23346;SDS011;36852;45.466;11.066;2023-05-07T01:01:02;20.25;;;14.50;;
23346;SDS011;36852;45.466;11.066;2023-05-07T01:03:29;14.87;;;12.85;;
23346;SDS011;36852;45.466;11.066;2023-05-07T01:05:57;17.67;;;14.90;;
23346;SDS011;36852;45.466;11.066;2023-05-07T01:08:27;18.82;;;14.15;;
23346;SDS011;36852;45.466;11.066;2023-05-07T01:10:56;16.20;;;13.45;;
23346;SDS011;36852;45.466;11.066;2023-05-07T01:13:24;18.57;;;14.07;;
23346;SDS011;36852;45.466;11.066;2023-05-07T01:15:53;19.20;;;14.58;;
23346;SDS011;36852;45.466;11.066;2023-05-07T01:18:24;17.40;;;14.75;;
23346;SDS011;36852;45.466;11.066;2023-05-07T01:20:52;17.00;;;14.35;;
23346;SDS011;36852;45.466;11.066;2023-05-07T01:23:22;15.18;;;13.58;;
23346;SDS011;36852;45.466;11.066;2023-05-07T01:25:54;18.77;;;14.20;;
23346;SDS011;36852;45.466;11.066;2023-05-07T01:28:23;16.82;;;13.88;;
23346;SDS011;36852;45.466;11.066;2023-05-07T01:30:54;14.45;;;12.90;;
23346;SDS011;36852;45.466;11.066;2023-05-07T01:33:24;17.32;;;14.43;;
23346;SDS011;36852;45.466;11.066;2023-05-07T01:35:54;17.45;;;13.95;;
23346;SDS011;36852;45.466;11.066;2023-05-07T01:38:22;16.25;;;13.85;;
23346;SDS011;36852;45.466;11.066;2023-05-07T01:40:51;16.75;;;14.90;;
23346;SDS011;36852;45.466;11.066;2023-05-07T01:43:22;15.13;;;13.53;;
23346;SDS011;36852;45.466;11.066;2023-05-07T01:45:50;15.38;;;13.30;;
23346;SDS011;36852;45.466;11.066;2023-05-07T01:48:19;17.05;;;13.98;;
23346;SDS011;36852;45.466;11.066;2023-05-07T01:50:49;15.13;;;13.53;;
23346;SDS011;36852;45.466;11.066;2023-05-07T01:53:16;16.45;;;13.75;;
23346;SDS011;36852;45.466;11.066;2023-05-07T01:55:44;17.10;;;14.98;;
23346;SDS011;36852;45.466;11.066;2023-05-07T01:58:12;17.42;;;14.95;;
23346;SDS011;36852;45.466;11.066;2023-05-07T02:00:41;16.05;;;14.25;;
23346;SDS011;36852;45.466;11.066;2023-05-07T02:03:09;18.30;;;15.35;;
23346;SDS011;36852;45.466;11.066;2023-05-07T02:05:39;21.40;;;14.68;;
23346;SDS011;36852;45.466;11.066;2023-05-07T02:08:08;16.77;;;14.30;;
23346;SDS011;36852;45.466;11.066;2023-05-07T02:10:37;16.25;;;14.33;;
23346;SDS011;36852;45.466;11.066;2023-05-07T02:13:05;21.45;;;14.15;;
23346;SDS011;36852;45.466;11.066;2023-05-07T02:15:33;21.27;;;14.35;;
23346;SDS011;36852;45.466;11.066;2023-05-07T02:20:36;15.45;;;13.85;;
23346;SDS011;36852;45.466;11.066;2023-05-07T02:23:07;15.78;;;13.90;;
23346;SDS011;36852;45.466;11.066;2023-05-07T02:25:36;16.60;;;14.20;;
23346;SDS011;36852;45.466;11.066;2023-05-07T02:28:04;15.05;;;13.25;;
23346;SDS011;36852;45.466;11.066;2023-05-07T02:30:33;17.98;;;13.85;;
23346;SDS011;36852;45.466;11.066;2023-05-07T02:33:01;18.55;;;14.23;;
23346;SDS011;36852;45.466;11.066;2023-05-07T02:35:31;18.07;;;13.93;;
23346;SDS011;36852;45.466;11.066;2023-05-07T02:37:59;15.65;;;13.30;;
23346;SDS011;36852;45.466;11.066;2023-05-07T02:40:26;16.45;;;13.13;;
23346;SDS011;36852;45.466;11.066;2023-05-07T02:42:54;14.00;;;12.43;;
23346;SDS011;36852;45.466;11.066;2023-05-07T02:45:22;14.00;;;11.30;;
23346;SDS011;36852;45.466;11.066;2023-05-07T02:47:52;12.47;;;10.70;;
23346;SDS011;36852;45.466;11.066;2023-05-07T02:50:19;14.23;;;12.73;;
23346;SDS011;36852;45.466;11.066;2023-05-07T02:52:48;12.75;;;11.48;;
23346;SDS011;36852;45.466;11.066;2023-05-07T02:55:15;13.43;;;12.00;;
23346;SDS011;36852;45.466;11.066;2023-05-07T02:57:43;13.10;;;11.70;;
23346;SDS011;36852;45.466;11.066;2023-05-07T03:00:12;13.70;;;11.63;;
23346;SDS011;36852;45.466;11.066;2023-05-07T03:02:45;13.65;;;11.38;;
23346;SDS011;36852;45.466;11.066;2023-05-07T03:05:13;13.85;;;12.25;;
23346;SDS011;36852;45.466;11.066;2023-05-07T03:07:41;15.08;;;13.15;;
23346;SDS011;36852;45.466;11.066;2023-05-07T03:10:12;14.78;;;12.47;;
23346;SDS011;36852;45.466;11.066;2023-05-07T03:12:42;15.70;;;12.50;;
23346;SDS011;36852;45.466;11.066;2023-05-07T03:15:11;15.98;;;13.35;;
23346;SDS011;36852;45.466;11.066;2023-05-07T03:20:14;15.28;;;13.38;;
23346;SDS011;36852;45.466;11.066;2023-05-07T03:22:42;14.58;;;12.40;;
23346;SDS011;36852;45.466;11.066;2023-05-07T03:25:11;14.03;;;12.58;;
23346;SDS011;36852;45.466;11.066;2023-05-07T03:27:42;17.05;;;12.93;;
23346;SDS011;36852;45.466;11.066;2023-05-07T03:30:11;14.98;;;12.88;;
23346;SDS011;36852;45.466;11.066;2023-05-07T03:32:39;16.85;;;13.55;;
23346;SDS011;36852;45.466;11.066;2023-05-07T03:35:08;15.23;;;12.73;;
23346;SDS011;36852;45.466;11.066;2023-05-07T03:37:36;15.63;;;13.75;;
23346;SDS011;36852;45.466;11.066;2023-05-07T03:40:05;15.32;;;12.82;;
23346;SDS011;36852;45.466;11.066;2023-05-07T03:42:37;15.23;;;13.48;;
23346;SDS011;36852;45.466;11.066;2023-05-07T03:45:06;15.83;;;13.65;;
23346;SDS011;36852;45.466;11.066;2023-05-07T03:47:35;16.73;;;13.00;;
23346;SDS011;36852;45.466;11.066;2023-05-07T03:50:05;14.87;;;13.28;;
23346;SDS011;36852;45.466;11.066;2023-05-07T03:52:33;14.18;;;12.78;;
23346;SDS011;36852;45.466;11.066;2023-05-07T03:55:02;16.42;;;14.18;;
23346;SDS011;36852;45.466;11.066;2023-05-07T03:57:31;15.08;;;13.48;;
23346;SDS011;36852;45.466;11.066;2023-05-07T03:59:59;17.12;;;14.13;;
23346;SDS011;36852;45.466;11.066;2023-05-07T04:02:30;15.98;;;13.43;;
23346;SDS011;36852;45.466;11.066;2023-05-07T04:04:59;15.30;;;12.70;;
23346;SDS011;36852;45.466;11.066;2023-05-07T04:07:26;15.75;;;13.98;;
23346;SDS011;36852;45.466;11.066;2023-05-07T04:09:54;15.35;;;13.75;;
23346;SDS011;36852;45.466;11.066;2023-05-07T04:12:22;15.58;;;13.55;;
23346;SDS011;36852;45.466;11.066;2023-05-07T04:14:53;15.70;;;14.03;;
23346;SDS011;36852;45.466;11.066;2023-05-07T04:17:23;17.10;;;13.28;;
23346;SDS011;36852;45.466;11.066;2023-05-07T04:19:51;15.98;;;13.03;;
23346;SDS011;36852;45.466;11.066;2023-05-07T04:22:19;18.65;;;14.25;;
23346;SDS011;36852;45.466;11.066;2023-05-07T04:24:48;15.83;;;14.23;;
23346;SDS011;36852;45.466;11.066;2023-05-07T04:27:16;18.05;;;13.60;;
23346;SDS011;36852;45.466;11.066;2023-05-07T04:29:44;15.23;;;12.80;;
23346;SDS011;36852;45.466;11.066;2023-05-07T04:32:14;15.38;;;13.40;;
23346;SDS011;36852;45.466;11.066;2023-05-07T04:34:43;13.95;;;12.45;;
23346;SDS011;36852;45.466;11.066;2023-05-07T04:37:12;17.20;;;12.68;;
23346;SDS011;36852;45.466;11.066;2023-05-07T04:39:39;15.83;;;13.50;;
23346;SDS011;36852;45.466;11.066;2023-05-07T04:42:08;17.73;;;14.10;;
23346;SDS011;36852;45.466;11.066;2023-05-07T04:44:37;15.88;;;14.15;;
23346;SDS011;36852;45.466;11.066;2023-05-07T04:49:55;15.48;;;13.62;;
23346;SDS011;36852;45.466;11.066;2023-05-07T04:53:02;26.17;;;14.83;;
23346;SDS011;36852;45.466;11.066;2023-05-07T04:55:17;20.57;;;14.90;;
23346;SDS011;36852;45.466;11.066;2023-05-07T04:57:45;25.97;;;16.60;;
23346;SDS011;36852;45.466;11.066;2023-05-07T05:00:13;26.07;;;16.12;;
23346;SDS011;36852;45.466;11.066;2023-05-07T05:05:19;15.95;;;14.20;;
23346;SDS011;36852;45.466;11.066;2023-05-07T05:07:49;18.35;;;14.50;;
23346;SDS011;36852;45.466;11.066;2023-05-07T05:10:16;16.55;;;14.75;;
23346;SDS011;36852;45.466;11.066;2023-05-07T05:12:44;17.95;;;14.43;;
23346;SDS011;36852;45.466;11.066;2023-05-07T05:15:15;17.42;;;14.05;;
23346;SDS011;36852;45.466;11.066;2023-05-07T05:17:43;16.48;;;14.45;;
23346;SDS011;36852;45.466;11.066;2023-05-07T05:20:11;19.62;;;15.05;;
23346;SDS011;36852;45.466;11.066;2023-05-07T05:22:40;25.25;;;15.45;;
23346;SDS011;36852;45.466;11.066;2023-05-07T05:25:09;78.37;;;26.55;;
23346;SDS011;36852;45.466;11.066;2023-05-07T05:27:37;20.27;;;16.15;;
23346;SDS011;36852;45.466;11.066;2023-05-07T05:30:05;18.40;;;15.28;;
23346;SDS011;36852;45.466;11.066;2023-05-07T05:32:34;19.15;;;14.33;;
23346;SDS011;36852;45.466;11.066;2023-05-07T05:35:02;15.95;;;13.15;;
23346;SDS011;36852;45.466;11.066;2023-05-07T05:37:31;19.75;;;13.18;;
23346;SDS011;36852;45.466;11.066;2023-05-07T05:40:00;16.57;;;14.73;;
23346;SDS011;36852;45.466;11.066;2023-05-07T05:42:31;18.52;;;14.78;;
23346;SDS011;36852;45.466;11.066;2023-05-07T05:44:59;16.57;;;14.25;;
23346;SDS011;36852;45.466;11.066;2023-05-07T05:47:28;17.67;;;15.20;;
23346;SDS011;36852;45.466;11.066;2023-05-07T05:49:57;17.10;;;14.13;;
23346;SDS011;36852;45.466;11.066;2023-05-07T05:52:25;15.68;;;14.07;;
23346;SDS011;36852;45.466;11.066;2023-05-07T05:54:53;17.52;;;15.10;;
23346;SDS011;36852;45.466;11.066;2023-05-07T05:57:21;16.75;;;14.45;;
23346;SDS011;36852;45.466;11.066;2023-05-07T05:59:51;18.12;;;15.20;;
23346;SDS011;36852;45.466;11.066;2023-05-07T06:02:19;17.37;;;14.98;;
23346;SDS011;36852;45.466;11.066;2023-05-07T06:04:47;20.72;;;15.93;;
23346;SDS011;36852;45.466;11.066;2023-05-07T06:07:17;21.17;;;17.45;;
23346;SDS011;36852;45.466;11.066;2023-05-07T06:09:44;21.50;;;16.52;;
23346;SDS011;36852;45.466;11.066;2023-05-07T06:12:12;18.57;;;15.78;;
23346;SDS011;36852;45.466;11.066;2023-05-07T06:14:42;21.85;;;17.05;;
23346;SDS011;36852;45.466;11.066;2023-05-07T06:17:13;21.50;;;16.80;;
23346;SDS011;36852;45.466;11.066;2023-05-07T06:19:41;19.37;;;15.88;;
23346;SDS011;36852;45.466;11.066;2023-05-07T06:22:10;20.80;;;17.02;;
23346;SDS011;36852;45.466;11.066;2023-05-07T06:24:37;18.87;;;15.88;;
23346;SDS011;36852;45.466;11.066;2023-05-07T06:27:06;18.12;;;16.00;;
23346;SDS011;36852;45.466;11.066;2023-05-07T06:29:34;19.07;;;16.17;;
23346;SDS011;36852;45.466;11.066;2023-05-07T06:32:07;17.62;;;15.78;;
23346;SDS011;36852;45.466;11.066;2023-05-07T06:34:38;21.48;;;16.93;;
23346;SDS011;36852;45.466;11.066;2023-05-07T06:37:07;20.82;;;17.37;;
23346;SDS011;36852;45.466;11.066;2023-05-07T06:39:36;18.27;;;15.25;;
23346;SDS011;36852;45.466;11.066;2023-05-07T06:42:04;18.07;;;16.17;;
23346;SDS011;36852;45.466;11.066;2023-05-07T06:44:32;20.68;;;17.57;;
23346;SDS011;36852;45.466;11.066;2023-05-07T06:47:05;19.40;;;16.25;;
23346;SDS011;36852;45.466;11.066;2023-05-07T06:49:33;18.45;;;16.23;;
23346;SDS011;36852;45.466;11.066;2023-05-07T06:52:03;18.65;;;15.85;;
23346;SDS011;36852;45.466;11.066;2023-05-07T06:54:31;18.42;;;15.35;;
23346;SDS011;36852;45.466;11.066;2023-05-07T06:56:59;17.15;;;14.93;;
23346;SDS011;36852;45.466;11.066;2023-05-07T06:59:28;19.50;;;15.90;;
23346;SDS011;36852;45.466;11.066;2023-05-07T07:01:56;18.45;;;15.65;;
23346;SDS011;36852;45.466;11.066;2023-05-07T07:04:24;21.93;;;16.50;;
23346;SDS011;36852;45.466;11.066;2023-05-07T07:06:54;18.17;;;15.63;;
23346;SDS011;36852;45.466;11.066;2023-05-07T07:09:27;20.90;;;16.73;;
23346;SDS011;36852;45.466;11.066;2023-05-07T07:11:55;21.17;;;16.05;;
23346;SDS011;36852;45.466;11.066;2023-05-07T07:14:23;20.20;;;14.98;;
23346;SDS011;36852;45.466;11.066;2023-05-07T07:16:51;18.50;;;14.68;;
23346;SDS011;36852;45.466;11.066;2023-05-07T07:19:19;19.65;;;16.30;;
23346;SDS011;36852;45.466;11.066;2023-05-07T07:21:48;21.40;;;14.98;;
23346;SDS011;36852;45.466;11.066;2023-05-07T07:24:16;19.82;;;15.85;;
23346;SDS011;36852;45.466;11.066;2023-05-07T07:26:47;20.85;;;16.20;;
23346;SDS011;36852;45.466;11.066;2023-05-07T07:29:15;21.17;;;16.82;;
23346;SDS011;36852;45.466;11.066;2023-05-07T07:31:43;20.77;;;15.85;;
23346;SDS011;36852;45.466;11.066;2023-05-07T07:34:14;24.90;;;18.12;;
23346;SDS011;36852;45.466;11.066;2023-05-07T07:36:43;20.30;;;17.75;;
23346;SDS011;36852;45.466;11.066;2023-05-07T07:39:14;23.65;;;18.80;;
23346;SDS011;36852;45.466;11.066;2023-05-07T07:41:44;20.32;;;16.95;;
23346;SDS011;36852;45.466;11.066;2023-05-07T07:44:12;23.07;;;18.02;;
23346;SDS011;36852;45.466;11.066;2023-05-07T07:46:41;25.95;;;17.75;;
23346;SDS011;36852;45.466;11.066;2023-05-07T07:49:09;32.15;;;17.75;;
23346;SDS011;36852;45.466;11.066;2023-05-07T07:51:38;21.37;;;17.20;;
23346;SDS011;36852;45.466;11.066;2023-05-07T07:54:05;20.85;;;17.12;;
23346;SDS011;36852;45.466;11.066;2023-05-07T07:56:34;37.78;;;18.92;;
23346;SDS011;36852;45.466;11.066;2023-05-07T07:59:03;23.62;;;17.42;;
23346;SDS011;36852;45.466;11.066;2023-05-07T08:01:34;20.77;;;17.30;;
23346;SDS011;36852;45.466;11.066;2023-05-07T08:04:02;22.27;;;17.95;;
23346;SDS011;36852;45.466;11.066;2023-05-07T08:06:34;28.45;;;20.92;;
23346;SDS011;36852;45.466;11.066;2023-05-07T08:09:03;22.73;;;18.25;;
23346;SDS011;36852;45.466;11.066;2023-05-07T08:11:32;20.27;;;16.97;;
23346;SDS011;36852;45.466;11.066;2023-05-07T08:14:00;18.27;;;16.05;;
23346;SDS011;36852;45.466;11.066;2023-05-07T08:16:29;23.55;;;20.15;;
23346;SDS011;36852;45.466;11.066;2023-05-07T08:18:58;23.27;;;18.17;;
23346;SDS011;36852;45.466;11.066;2023-05-07T08:21:26;17.55;;;15.43;;
23346;SDS011;36852;45.466;11.066;2023-05-07T08:23:54;23.90;;;18.55;;
23346;SDS011;36852;45.466;11.066;2023-05-07T08:26:22;21.48;;;17.27;;
23346;SDS011;36852;45.466;11.066;2023-05-07T08:28:51;18.50;;;16.27;;
23346;SDS011;36852;45.466;11.066;2023-05-07T08:31:19;20.97;;;17.48;;
23346;SDS011;36852;45.466;11.066;2023-05-07T08:33:47;18.60;;;15.88;;
23346;SDS011;36852;45.466;11.066;2023-05-07T08:36:15;19.07;;;14.80;;
23346;SDS011;36852;45.466;11.066;2023-05-07T08:38:43;24.77;;;15.48;;
23346;SDS011;36852;45.466;11.066;2023-05-07T08:41:13;19.52;;;15.23;;
23346;SDS011;36852;45.466;11.066;2023-05-07T08:43:42;16.75;;;14.90;;
23346;SDS011;36852;45.466;11.066;2023-05-07T08:46:15;18.10;;;13.78;;
23346;SDS011;36852;45.466;11.066;2023-05-07T08:48:52;15.60;;;13.85;;
23346;SDS011;36852;45.466;11.066;2023-05-07T08:51:20;15.72;;;13.28;;
23346;SDS011;36852;45.466;11.066;2023-05-07T08:53:50;15.48;;;13.83;;
23346;SDS011;36852;45.466;11.066;2023-05-07T08:56:20;16.75;;;14.05;;
23346;SDS011;36852;45.466;11.066;2023-05-07T08:58:50;21.23;;;16.17;;
23346;SDS011;36852;45.466;11.066;2023-05-07T09:01:19;18.30;;;16.30;;
23346;SDS011;36852;45.466;11.066;2023-05-07T09:03:49;16.02;;;14.03;;
23346;SDS011;36852;45.466;11.066;2023-05-07T09:06:18;14.95;;;12.95;;
23346;SDS011;36852;45.466;11.066;2023-05-07T09:08:53;15.90;;;13.53;;
23346;SDS011;36852;45.466;11.066;2023-05-07T09:11:23;15.95;;;14.23;;
23346;SDS011;36852;45.466;11.066;2023-05-07T09:13:57;17.32;;;15.53;;
23346;SDS011;36852;45.466;11.066;2023-05-07T09:16:28;18.57;;;14.73;;
23346;SDS011;36852;45.466;11.066;2023-05-07T09:18:58;17.15;;;15.10;;
23346;SDS011;36852;45.466;11.066;2023-05-07T09:21:27;16.65;;;13.98;;
23346;SDS011;36852;45.466;11.066;2023-05-07T09:23:56;12.43;;;11.12;;
23346;SDS011;36852;45.466;11.066;2023-05-07T09:26:26;15.00;;;11.63;;
23346;SDS011;36852;45.466;11.066;2023-05-07T09:28:55;12.13;;;9.48;;
23346;SDS011;36852;45.466;11.066;2023-05-07T09:31:23;11.30;;;8.85;;
23346;SDS011;36852;45.466;11.066;2023-05-07T09:33:53;10.95;;;9.88;;
23346;SDS011;36852;45.466;11.066;2023-05-07T09:36:25;13.50;;;12.07;;
23346;SDS011;36852;45.466;11.066;2023-05-07T09:38:54;16.82;;;13.00;;
23346;SDS011;36852;45.466;11.066;2023-05-07T09:41:23;15.63;;;13.98;;
23346;SDS011;36852;45.466;11.066;2023-05-07T09:43:56;13.08;;;11.48;;
23346;SDS011;36852;45.466;11.066;2023-05-07T09:46:27;24.92;;;19.10;;
23346;SDS011;36852;45.466;11.066;2023-05-07T09:48:58;23.80;;;15.58;;
23346;SDS011;36852;45.466;11.066;2023-05-07T09:51:29;16.87;;;13.05;;
23346;SDS011;36852;45.466;11.066;2023-05-07T09:53:59;17.10;;;12.37;;
23346;SDS011;36852;45.466;11.066;2023-05-07T09:56:30;14.73;;;12.05;;
23346;SDS011;36852;45.466;11.066;2023-05-07T09:59:01;15.50;;;13.75;;
23346;SDS011;36852;45.466;11.066;2023-05-07T10:01:31;17.25;;;14.45;;
23346;SDS011;36852;45.466;11.066;2023-05-07T10:04:01;16.27;;;14.05;;
23346;SDS011;36852;45.466;11.066;2023-05-07T10:06:41;19.02;;;15.32;;
23346;SDS011;36852;45.466;11.066;2023-05-07T10:09:11;18.37;;;15.50;;
23346;SDS011;36852;45.466;11.066;2023-05-07T10:11:41;15.53;;;13.93;;
23346;SDS011;36852;45.466;11.066;2023-05-07T10:14:11;17.67;;;14.70;;
23346;SDS011;36852;45.466;11.066;2023-05-07T10:16:40;17.82;;;14.98;;
23346;SDS011;36852;45.466;11.066;2023-05-07T10:19:10;16.30;;;12.98;;
23346;SDS011;36852;45.466;11.066;2023-05-07T10:21:59;14.23;;;12.73;;
23346;SDS011;36852;45.466;11.066;2023-05-07T10:24:26;18.62;;;13.75;;
23346;SDS011;36852;45.466;11.066;2023-05-07T10:27:04;20.35;;;14.28;;
23346;SDS011;36852;45.466;11.066;2023-05-07T10:32:12;22.37;;;15.72;;
23346;SDS011;36852;45.466;11.066;2023-05-07T10:34:45;20.95;;;16.90;;
23346;SDS011;36852;45.466;11.066;2023-05-07T10:37:12;15.83;;;13.38;;
23346;SDS011;36852;45.466;11.066;2023-05-07T10:39:40;13.62;;;12.18;;
23346;SDS011;36852;45.466;11.066;2023-05-07T10:42:10;16.32;;;13.85;;
23346;SDS011;36852;45.466;11.066;2023-05-07T10:44:40;15.75;;;13.03;;
23346;SDS011;36852;45.466;11.066;2023-05-07T10:47:11;12.68;;;11.20;;
23346;SDS011;36852;45.466;11.066;2023-05-07T10:58:21;16.70;;;13.90;;
23346;SDS011;36852;45.466;11.066;2023-05-07T11:00:55;17.37;;;12.93;;
23346;SDS011;36852;45.466;11.066;2023-05-07T11:03:27;14.53;;;13.00;;
23346;SDS011;36852;45.466;11.066;2023-05-07T11:06:14;16.80;;;13.45;;
23346;SDS011;36852;45.466;11.066;2023-05-07T11:17:15;16.00;;;13.62;;
23346;SDS011;36852;45.466;11.066;2023-05-07T11:19:51;15.28;;;13.40;;
23346;SDS011;36852;45.466;11.066;2023-05-07T11:22:37;19.02;;;12.73;;
23346;SDS011;36852;45.466;11.066;2023-05-07T11:25:08;14.65;;;11.12;;
23346;SDS011;36852;45.466;11.066;2023-05-07T11:27:36;11.57;;;10.38;;
23346;SDS011;36852;45.466;11.066;2023-05-07T11:30:05;13.08;;;11.15;;
23346;SDS011;36852;45.466;11.066;2023-05-07T11:32:33;20.72;;;13.48;;
23346;SDS011;36852;45.466;11.066;2023-05-07T11:35:01;14.83;;;11.48;;
23346;SDS011;36852;45.466;11.066;2023-05-07T11:37:29;12.78;;;11.53;;
23346;SDS011;36852;45.466;11.066;2023-05-07T11:40:03;14.28;;;10.53;;
23346;SDS011;36852;45.466;11.066;2023-05-07T11:42:34;13.40;;;10.08;;
23346;SDS011;36852;45.466;11.066;2023-05-07T11:45:05;12.93;;;10.55;;
23346;SDS011;36852;45.466;11.066;2023-05-07T11:47:33;12.90;;;11.15;;
23346;SDS011;36852;45.466;11.066;2023-05-07T11:50:03;16.25;;;11.57;;
23346;SDS011;36852;45.466;11.066;2023-05-07T11:52:33;13.28;;;10.78;;
23346;SDS011;36852;45.466;11.066;2023-05-07T11:55:02;10.53;;;9.30;;
23346;SDS011;36852;45.466;11.066;2023-05-07T11:57:33;10.23;;;9.20;;
23346;SDS011;36852;45.466;11.066;2023-05-07T12:00:02;12.70;;;10.43;;
23346;SDS011;36852;45.466;11.066;2023-05-07T12:02:40;12.78;;;9.73;;
23346;SDS011;36852;45.466;11.066;2023-05-07T12:05:09;11.22;;;10.08;;
23346;SDS011;36852;45.466;11.066;2023-05-07T12:07:37;11.68;;;10.48;;
23346;SDS011;36852;45.466;11.066;2023-05-07T12:10:05;11.73;;;10.48;;
23346;SDS011;36852;45.466;11.066;2023-05-07T12:12:40;12.30;;;9.20;;
23346;SDS011;36852;45.466;11.066;2023-05-07T12:15:13;10.72;;;9.35;;
23346;SDS011;36852;45.466;11.066;2023-05-07T12:17:43;11.70;;;10.32;;
23346;SDS011;36852;45.466;11.066;2023-05-07T12:20:11;9.23;;;8.23;;
23346;SDS011;36852;45.466;11.066;2023-05-07T12:22:40;9.55;;;8.10;;
23346;SDS011;36852;45.466;11.066;2023-05-07T12:25:08;8.98;;;8.08;;
23346;SDS011;36852;45.466;11.066;2023-05-07T12:27:37;11.95;;;7.15;;
23346;SDS011;36852;45.466;11.066;2023-05-07T12:30:09;8.48;;;7.55;;
23346;SDS011;36852;45.466;11.066;2023-05-07T12:32:38;9.53;;;7.78;;
23346;SDS011;36852;45.466;11.066;2023-05-07T12:35:06;9.63;;;7.65;;
23346;SDS011;36852;45.466;11.066;2023-05-07T12:37:37;7.70;;;7.00;;
23346;SDS011;36852;45.466;11.066;2023-05-07T12:40:07;8.55;;;6.45;;
23346;SDS011;36852;45.466;11.066;2023-05-07T12:42:37;9.28;;;7.67;;
23346;SDS011;36852;45.466;11.066;2023-05-07T12:45:12;11.60;;;8.65;;
23346;SDS011;36852;45.466;11.066;2023-05-07T12:47:43;9.30;;;8.40;;
23346;SDS011;36852;45.466;11.066;2023-05-07T12:50:15;9.95;;;7.70;;
23346;SDS011;36852;45.466;11.066;2023-05-07T12:52:49;7.72;;;6.80;;
23346;SDS011;36852;45.466;11.066;2023-05-07T12:55:17;10.90;;;7.85;;
23346;SDS011;36852;45.466;11.066;2023-05-07T12:57:48;9.40;;;6.30;;
23346;SDS011;36852;45.466;11.066;2023-05-07T13:00:17;7.70;;;6.70;;
23346;SDS011;36852;45.466;11.066;2023-05-07T13:02:48;9.70;;;7.78;;
23346;SDS011;36852;45.466;11.066;2023-05-07T13:05:19;9.63;;;6.35;;
23346;SDS011;36852;45.466;11.066;2023-05-07T13:07:53;7.03;;;6.37;;
23346;SDS011;36852;45.466;11.066;2023-05-07T13:10:22;6.87;;;6.17;;
23346;SDS011;36852;45.466;11.066;2023-05-07T13:12:51;8.63;;;6.40;;
23346;SDS011;36852;45.466;11.066;2023-05-07T13:15:20;7.97;;;6.60;;
23346;SDS011;36852;45.466;11.066;2023-05-07T13:17:49;7.20;;;6.40;;
23346;SDS011;36852;45.466;11.066;2023-05-07T13:20:17;8.13;;;7.17;;
23346;SDS011;36852;45.466;11.066;2023-05-07T13:22:45;9.20;;;8.20;;
23346;SDS011;36852;45.466;11.066;2023-05-07T13:25:13;8.05;;;7.33;;
23346;SDS011;36852;45.466;11.066;2023-05-07T13:27:42;10.98;;;8.53;;
23346;SDS011;36852;45.466;11.066;2023-05-07T13:30:12;8.10;;;7.30;;
23346;SDS011;36852;45.466;11.066;2023-05-07T13:32:43;9.38;;;8.45;;
23346;SDS011;36852;45.466;11.066;2023-05-07T13:35:13;9.50;;;8.60;;
23346;SDS011;36852;45.466;11.066;2023-05-07T13:37:41;8.85;;;8.05;;
23346;SDS011;36852;45.466;11.066;2023-05-07T13:40:09;8.75;;;6.95;;
23346;SDS011;36852;45.466;11.066;2023-05-07T13:42:38;9.20;;;7.60;;
23346;SDS011;36852;45.466;11.066;2023-05-07T13:45:06;9.30;;;7.70;;
23346;SDS011;36852;45.466;11.066;2023-05-07T13:47:36;8.38;;;7.55;;
23346;SDS011;36852;45.466;11.066;2023-05-07T13:50:08;8.90;;;6.87;;
23346;SDS011;36852;45.466;11.066;2023-05-07T13:52:42;10.40;;;7.58;;
23346;SDS011;36852;45.466;11.066;2023-05-07T13:55:20;7.33;;;6.58;;
23346;SDS011;36852;45.466;11.066;2023-05-07T13:57:54;8.38;;;7.58;;
23346;SDS011;36852;45.466;11.066;2023-05-07T14:00:24;9.73;;;6.53;;
23346;SDS011;36852;45.466;11.066;2023-05-07T14:02:54;8.53;;;7.65;;
23346;SDS011;36852;45.466;11.066;2023-05-07T14:05:24;11.70;;;7.78;;
23346;SDS011;36852;45.466;11.066;2023-05-07T14:07:56;8.80;;;8.00;;
23346;SDS011;36852;45.466;11.066;2023-05-07T14:10:25;12.95;;;8.08;;
23346;SDS011;36852;45.466;11.066;2023-05-07T14:12:53;7.22;;;6.53;;
23346;SDS011;36852;45.466;11.066;2023-05-07T14:15:22;8.83;;;6.65;;
23346;SDS011;36852;45.466;11.066;2023-05-07T14:17:49;9.43;;;6.50;;
23346;SDS011;36852;45.466;11.066;2023-05-07T14:20:17;10.82;;;6.95;;
23346;SDS011;36852;45.466;11.066;2023-05-07T14:22:45;7.25;;;6.30;;
23346;SDS011;36852;45.466;11.066;2023-05-07T14:25:16;7.37;;;5.87;;
23346;SDS011;36852;45.466;11.066;2023-05-07T14:27:45;9.10;;;6.72;;
23346;SDS011;36852;45.466;11.066;2023-05-07T14:30:13;7.75;;;7.03;;
23346;SDS011;36852;45.466;11.066;2023-05-07T14:32:41;14.47;;;10.32;;
23346;SDS011;36852;45.466;11.066;2023-05-07T14:35:10;11.00;;;9.10;;
23346;SDS011;36852;45.466;11.066;2023-05-07T14:37:38;12.82;;;11.15;;
23346;SDS011;36852;45.466;11.066;2023-05-07T14:40:10;13.08;;;7.67;;
23346;SDS011;36852;45.466;11.066;2023-05-07T14:42:39;11.28;;;8.73;;
23346;SDS011;36852;45.466;11.066;2023-05-07T14:45:08;13.85;;;9.38;;
23346;SDS011;36852;45.466;11.066;2023-05-07T14:47:38;10.15;;;8.65;;
23346;SDS011;36852;45.466;11.066;2023-05-07T14:50:06;9.85;;;8.85;;
23346;SDS011;36852;45.466;11.066;2023-05-07T14:52:34;10.63;;;8.58;;
23346;SDS011;36852;45.466;11.066;2023-05-07T14:55:02;11.38;;;10.28;;
23346;SDS011;36852;45.466;11.066;2023-05-07T14:57:30;10.72;;;8.90;;
23346;SDS011;36852;45.466;11.066;2023-05-07T15:00:03;8.95;;;7.83;;